createdAt,value
2017-11-22T00:00:24.525Z,21.07
2017-11-22T00:01:36.599Z,21.1
2017-11-22T00:02:49.155Z,21.1
2017-11-22T00:04:02.139Z,21.14
2017-11-22T00:05:15.143Z,20.98
2017-11-22T00:06:27.180Z,20.94
2017-11-22T00:07:40.163Z,20.97
2017-11-22T00:08:53.144Z,21.03
2017-11-22T00:10:06.168Z,21.04
2017-11-22T00:11:18.219Z,20.88
2017-11-22T00:12:31.282Z,20.77
2017-11-22T00:13:43.752Z,20.76
2017-11-22T00:14:56.739Z,20.67
2017-11-22T00:16:09.297Z,20.87
2017-11-22T00:17:22.289Z,20.85
2017-11-22T00:18:34.827Z,20.77
2017-11-22T00:19:47.849Z,20.84
2017-11-22T00:21:00.866Z,20.8
2017-11-22T00:22:13.392Z,20.73
2017-11-22T00:23:25.936Z,20.67
2017-11-22T00:24:38.942Z,20.72
2017-11-22T00:25:51.501Z,20.74
2017-11-22T00:27:04.021Z,20.8
2017-11-22T00:28:17.046Z,20.85
2017-11-22T00:29:30.061Z,20.89
2017-11-22T00:30:43.072Z,20.89
2017-11-22T00:31:56.090Z,20.88
2017-11-22T00:33:09.124Z,20.91
2017-11-22T00:34:22.132Z,20.87
2017-11-22T00:35:35.103Z,20.79
2017-11-22T00:36:48.110Z,20.85
2017-11-22T00:38:00.634Z,20.77
2017-11-22T00:39:13.648Z,20.79
2017-11-22T00:40:26.600Z,20.77
2017-11-22T00:41:39.624Z,20.73
2017-11-22T00:42:52.653Z,20.8
2017-11-22T00:44:05.660Z,20.76
2017-11-22T00:45:18.636Z,20.85
2017-11-22T00:46:31.635Z,20.87
2017-11-22T00:47:44.203Z,20.85
2017-11-22T00:48:56.705Z,20.77
2017-11-22T00:50:09.256Z,20.79
2017-11-22T00:51:22.235Z,20.79
2017-11-22T00:52:35.232Z,20.79
2017-11-22T00:53:48.201Z,20.79
2017-11-22T00:55:01.260Z,20.74
2017-11-22T00:56:14.256Z,20.74
2017-11-22T00:57:27.272Z,20.72
2017-11-22T00:58:40.281Z,20.73
2017-11-22T00:59:53.257Z,20.74
2017-11-22T01:01:06.223Z,20.76
2017-11-22T01:02:19.218Z,20.74
2017-11-22T01:03:32.206Z,20.77
2017-11-22T01:04:45.164Z,20.79
2017-11-22T01:05:57.727Z,20.74
2017-11-22T01:07:10.249Z,20.84
2017-11-22T01:08:23.256Z,20.85
2017-11-22T01:09:36.270Z,20.79
2017-11-22T01:10:49.270Z,20.76
2017-11-22T01:12:02.274Z,20.74
2017-11-22T01:13:15.268Z,20.77
2017-11-22T01:14:28.303Z,20.72
2017-11-22T01:15:41.276Z,20.87
2017-11-22T01:16:54.452Z,20.73
2017-11-22T01:18:07.000Z,20.82
2017-11-22T01:19:19.514Z,20.87
2017-11-22T01:20:32.496Z,20.79
2017-11-22T01:21:45.508Z,20.79
2017-11-22T01:22:58.531Z,20.74
2017-11-22T01:24:11.056Z,20.74
2017-11-22T01:25:23.092Z,20.79
2017-11-22T01:26:35.627Z,20.84
2017-11-22T01:27:48.616Z,20.77
2017-11-22T01:29:01.601Z,20.8
2017-11-22T01:30:14.562Z,20.77
2017-11-22T01:31:27.063Z,20.79
2017-11-22T01:32:40.093Z,20.67
2017-11-22T01:33:52.628Z,20.7
2017-11-22T01:35:05.180Z,20.5
2017-11-22T01:36:17.717Z,20.48
2017-11-22T01:37:30.712Z,20.52
2017-11-22T01:38:43.189Z,20.35
2017-11-22T01:39:56.197Z,20.28
2017-11-22T01:41:09.219Z,20.31
2017-11-22T01:42:22.211Z,20.24
2017-11-22T01:43:35.234Z,20.35
2017-11-22T01:44:47.924Z,20.28
2017-11-22T01:46:00.900Z,20.32
2017-11-22T01:47:13.912Z,20.28
2017-11-22T01:48:26.509Z,20.28
2017-11-22T01:49:39.055Z,20.29
2017-11-22T01:50:52.039Z,20.31
2017-11-22T01:52:05.042Z,20.28
2017-11-22T01:53:18.020Z,20.29
2017-11-22T01:54:31.032Z,20.29
2017-11-22T01:55:44.009Z,20.31
2017-11-22T01:56:56.546Z,20.24
2017-11-22T01:58:09.530Z,20.18
2017-11-22T01:59:22.557Z,20.2
2017-11-22T02:00:35.551Z,20.23
2017-11-22T02:01:48.049Z,20.17
2017-11-22T02:03:01.062Z,20.11
2017-11-22T02:04:13.614Z,20.08
2017-11-22T02:05:26.640Z,20.11
2017-11-22T02:06:39.198Z,20.06
2017-11-22T02:07:52.192Z,20.03
2017-11-22T02:09:05.221Z,20.08
2017-11-22T02:10:18.269Z,20.08
2017-11-22T02:11:31.336Z,20.21
2017-11-22T02:12:44.330Z,20.16
2017-11-22T02:13:57.020Z,20.11
2017-11-22T02:15:10.025Z,20.17
2017-11-22T02:16:23.011Z,20.18
2017-11-22T02:17:35.964Z,20.11
2017-11-22T02:18:48.991Z,20.14
2017-11-22T02:20:01.491Z,20.1
2017-11-22T02:21:14.490Z,20.08
2017-11-22T02:22:26.076Z,19.95
2017-11-22T02:23:39.088Z,19.98
2017-11-22T02:24:52.085Z,19.98
2017-11-22T02:26:04.635Z,19.98
2017-11-22T02:27:17.622Z,20.05
2017-11-22T02:28:30.602Z,19.99
2017-11-22T02:29:43.591Z,20.02
2017-11-22T02:30:56.632Z,20.01
2017-11-22T02:32:09.185Z,19.96
2017-11-22T02:33:22.182Z,20.06
2017-11-22T02:34:35.179Z,19.96
2017-11-22T02:35:48.253Z,20.06
2017-11-22T02:37:00.827Z,19.96
2017-11-22T02:38:13.839Z,20.01
2017-11-22T02:39:26.851Z,19.96
2017-11-22T02:40:39.392Z,19.99
2017-11-22T02:41:52.418Z,19.86
2017-11-22T02:43:05.451Z,19.94
2017-11-22T02:44:18.048Z,19.87
2017-11-22T02:45:31.262Z,19.87
2017-11-22T02:46:44.256Z,19.92
2017-11-22T02:47:57.250Z,19.84
2017-11-22T02:49:10.291Z,19.87
2017-11-22T02:50:22.871Z,19.86
2017-11-22T02:51:35.424Z,19.96
2017-11-22T02:52:47.926Z,20.01
2017-11-22T02:54:00.964Z,20.01
2017-11-22T02:55:13.962Z,19.98
2017-11-22T02:56:26.960Z,20.1
2017-11-22T02:57:39.997Z,20.1
2017-11-22T02:58:53.019Z,20.13
2017-11-22T03:00:06.035Z,19.98
2017-11-22T03:01:19.036Z,19.96
2017-11-22T03:02:32.039Z,19.98
2017-11-22T03:03:45.000Z,20.11
2017-11-22T03:04:58.035Z,20.08
2017-11-22T03:06:10.099Z,20.11
2017-11-22T03:07:23.123Z,20.03
2017-11-22T03:08:35.975Z,20.14
2017-11-22T03:09:48.922Z,20.23
2017-11-22T03:11:01.909Z,20.1
2017-11-22T03:12:14.898Z,20.06
2017-11-22T03:13:27.897Z,20.13
2017-11-22T03:14:40.466Z,20.02
2017-11-22T03:15:53.470Z,20.01
2017-11-22T03:17:05.990Z,19.98
2017-11-22T03:18:18.989Z,20.06
2017-11-22T03:19:31.981Z,19.94
2017-11-22T03:20:44.933Z,19.95
2017-11-22T03:21:57.467Z,20.01
2017-11-22T03:23:09.976Z,19.98
2017-11-22T03:24:22.789Z,19.98
2017-11-22T03:25:35.803Z,19.99
2017-11-22T03:26:48.817Z,20.02
2017-11-22T03:28:01.811Z,20.05
2017-11-22T03:29:15.041Z,20.1
2017-11-22T03:30:28.016Z,20.1
2017-11-22T03:31:41.059Z,20.11
2017-11-22T03:32:54.079Z,20.05
2017-11-22T03:34:07.053Z,20.1
2017-11-22T03:35:20.067Z,20.2
2017-11-22T03:36:33.061Z,20.29
2017-11-22T03:37:46.098Z,20.2
2017-11-22T03:38:59.098Z,20.2
2017-11-22T03:40:12.123Z,20.28
2017-11-22T03:41:25.191Z,20.16
2017-11-22T03:42:38.213Z,20.16
2017-11-22T03:43:50.715Z,20.18
2017-11-22T03:45:03.714Z,20.21
2017-11-22T03:46:16.231Z,20.11
2017-11-22T03:47:29.272Z,20.03
2017-11-22T03:48:42.225Z,20.03
2017-11-22T03:49:55.217Z,20.11
2017-11-22T03:51:07.773Z,20.2
2017-11-22T03:52:20.320Z,20.21
2017-11-22T03:53:33.333Z,20.26
2017-11-22T03:54:45.902Z,20.28
2017-11-22T03:55:58.947Z,20.38
2017-11-22T03:57:11.977Z,20.39
2017-11-22T03:58:25.085Z,20.43
2017-11-22T03:59:38.105Z,20.42
2017-11-22T04:00:51.123Z,20.32
2017-11-22T04:02:04.112Z,20.26
2017-11-22T04:03:16.149Z,20.35
2017-11-22T04:04:27.980Z,20.35
2017-11-22T04:05:41.159Z,20.41
2017-11-22T04:06:54.155Z,20.43
2017-11-22T04:08:07.150Z,20.48
2017-11-22T04:09:20.141Z,20.43
2017-11-22T04:10:33.143Z,20.26
2017-11-22T04:11:46.127Z,20.24
2017-11-22T04:12:59.107Z,20.18
2017-11-22T04:14:12.139Z,20.18
2017-11-22T04:15:25.118Z,20.18
2017-11-22T04:16:37.679Z,20.23
2017-11-22T04:17:50.697Z,20.23
2017-11-22T04:19:03.680Z,20.26
2017-11-22T04:20:16.696Z,20.21
2017-11-22T04:21:29.862Z,20.26
2017-11-22T04:22:42.374Z,20.32
2017-11-22T04:23:55.335Z,20.2
2017-11-22T04:25:08.362Z,20.21
2017-11-22T04:26:21.325Z,20.18
2017-11-22T04:27:34.336Z,20.17
2017-11-22T04:28:46.818Z,20.17
2017-11-22T04:29:59.849Z,20.18
2017-11-22T04:31:12.800Z,20.28
2017-11-22T04:32:25.310Z,20.2
2017-11-22T04:33:38.275Z,20.26
2017-11-22T04:34:49.852Z,20.28
2017-11-22T04:36:02.890Z,20.26
2017-11-22T04:37:14.937Z,20.31
2017-11-22T04:38:27.879Z,20.35
2017-11-22T04:39:40.829Z,20.35
2017-11-22T04:40:52.877Z,20.33
2017-11-22T04:42:05.371Z,20.28
2017-11-22T04:43:17.440Z,20.39
2017-11-22T04:44:30.412Z,20.39
2017-11-22T04:45:43.427Z,20.43
2017-11-22T04:46:56.488Z,20.36
2017-11-22T04:48:09.543Z,20.32
2017-11-22T04:49:22.072Z,20.5
2017-11-22T04:50:35.065Z,20.5
2017-11-22T04:51:48.026Z,20.35
2017-11-22T04:53:01.058Z,20.28
2017-11-22T04:54:14.090Z,20.26
2017-11-22T04:55:26.163Z,20.26
2017-11-22T04:56:39.159Z,20.29
2017-11-22T04:57:52.126Z,20.35
2017-11-22T04:59:05.164Z,20.35
2017-11-22T05:00:18.419Z,20.38
2017-11-22T05:01:31.395Z,20.35
2017-11-22T05:02:44.370Z,20.31
2017-11-22T05:03:57.367Z,20.35
2017-11-22T05:05:09.848Z,20.31
2017-11-22T05:06:22.375Z,20.24
2017-11-22T05:07:35.353Z,20.23
2017-11-22T05:08:48.344Z,20.18
2017-11-22T05:10:01.433Z,20.23
2017-11-22T05:11:14.445Z,20.08
2017-11-22T05:12:27.450Z,20.1
2017-11-22T05:13:40.499Z,20.14
2017-11-22T05:14:53.491Z,20.1
2017-11-22T05:16:06.449Z,20.06
2017-11-22T05:17:19.469Z,20.11
2017-11-22T05:18:32.450Z,20.13
2017-11-22T05:19:45.474Z,20.1
2017-11-22T05:20:57.972Z,20.11
2017-11-22T05:22:10.962Z,20.05
2017-11-22T05:23:23.979Z,20.1
2017-11-22T05:24:36.959Z,20.06
2017-11-22T05:25:49.937Z,20.16
2017-11-22T05:27:02.944Z,20.13
2017-11-22T05:28:15.930Z,20.1
2017-11-22T05:29:28.911Z,20.11
2017-11-22T05:30:41.882Z,20.18
2017-11-22T05:31:54.879Z,20.06
2017-11-22T05:33:07.914Z,20.18
2017-11-22T05:34:20.906Z,20.14
2017-11-22T05:35:33.986Z,20.08
2017-11-22T05:36:47.088Z,20.08
2017-11-22T05:38:00.086Z,20.06
2017-11-22T05:39:13.052Z,20.1
2017-11-22T05:40:26.286Z,20.1
2017-11-22T05:41:39.283Z,20.11
2017-11-22T05:42:51.823Z,20.06
2017-11-22T05:44:04.792Z,20.06
2017-11-22T05:45:17.749Z,20.03
2017-11-22T05:46:30.730Z,20.06
2017-11-22T05:47:43.760Z,19.98
2017-11-22T05:48:56.746Z,20.02
2017-11-22T05:50:09.701Z,19.91
2017-11-22T05:51:22.746Z,19.84
2017-11-22T05:52:35.227Z,19.88
2017-11-22T05:53:48.184Z,19.94
2017-11-22T05:55:01.154Z,19.73
2017-11-22T05:56:13.673Z,19.76
2017-11-22T05:57:26.695Z,19.84
2017-11-22T05:58:39.260Z,19.74
2017-11-22T05:59:52.445Z,19.62
2017-11-22T06:01:04.938Z,19.63
2017-11-22T06:02:17.985Z,19.74
2017-11-22T06:03:30.995Z,19.71
2017-11-22T06:04:43.972Z,19.83
2017-11-22T06:05:56.964Z,19.87
2017-11-22T06:07:09.513Z,19.96
2017-11-22T06:08:22.057Z,20.01
2017-11-22T06:09:35.038Z,19.78
2017-11-22T06:10:46.674Z,19.58
2017-11-22T06:11:59.211Z,19.47
2017-11-22T06:13:11.827Z,19.4
2017-11-22T06:14:24.847Z,19.41
2017-11-22T06:15:37.788Z,19.36
2017-11-22T06:16:50.795Z,19.29
2017-11-22T06:18:03.776Z,19.18
2017-11-22T06:19:16.332Z,19.13
2017-11-22T06:20:28.844Z,19.08
2017-11-22T06:21:41.392Z,19.11
2017-11-22T06:22:54.411Z,19.23
2017-11-22T06:24:07.416Z,19.26
2017-11-22T06:25:20.425Z,19.21
2017-11-22T06:26:32.961Z,19.26
2017-11-22T06:27:45.948Z,19.21
2017-11-22T06:28:59.147Z,19.08
2017-11-22T06:30:10.718Z,18.9
2017-11-22T06:31:23.248Z,18.9
2017-11-22T06:32:36.250Z,18.87
2017-11-22T06:33:48.772Z,19
2017-11-22T06:35:01.733Z,18.98
2017-11-22T06:36:14.744Z,18.94
2017-11-22T06:37:27.712Z,18.91
2017-11-22T06:38:40.766Z,18.9
2017-11-22T06:39:53.719Z,18.9
2017-11-22T06:41:06.241Z,18.98
2017-11-22T06:42:18.742Z,18.88
2017-11-22T06:43:31.306Z,18.91
2017-11-22T06:44:43.641Z,18.95
2017-11-22T06:45:56.656Z,18.95
2017-11-22T06:47:09.638Z,18.9
2017-11-22T06:48:22.158Z,18.92
2017-11-22T06:49:35.201Z,18.95
2017-11-22T06:50:48.224Z,19.22
2017-11-22T06:52:00.758Z,19.16
2017-11-22T06:53:13.264Z,19.19
2017-11-22T06:54:25.797Z,19.04
2017-11-22T06:55:37.889Z,18.92
2017-11-22T06:56:50.872Z,18.99
2017-11-22T06:58:03.439Z,18.92
2017-11-22T06:59:16.615Z,18.98
2017-11-22T07:00:29.142Z,19.02
2017-11-22T07:01:41.692Z,18.85
2017-11-22T07:02:54.681Z,18.87
2017-11-22T07:04:07.686Z,18.9
2017-11-22T07:05:20.648Z,18.95
2017-11-22T07:06:33.635Z,19
2017-11-22T07:07:46.601Z,18.94
2017-11-22T07:08:59.618Z,19.02
2017-11-22T07:10:12.601Z,19.04
2017-11-22T07:11:24.636Z,19.07
2017-11-22T07:12:37.121Z,18.94
2017-11-22T07:13:50.102Z,19
2017-11-22T07:15:03.112Z,19
2017-11-22T07:16:47.326Z,19.1
2017-11-22T07:18:00.277Z,19.16
2017-11-22T07:19:13.291Z,19.21
2017-11-22T07:20:26.246Z,19.29
2017-11-22T07:21:39.209Z,19.32
2017-11-22T07:22:51.780Z,19.22
2017-11-22T07:24:04.823Z,19.14
2017-11-22T07:25:17.796Z,19.13
2017-11-22T07:26:30.806Z,19.21
2017-11-22T07:27:43.821Z,19.04
2017-11-22T07:28:56.374Z,19.07
2017-11-22T07:30:09.099Z,19.1
2017-11-22T07:31:21.605Z,19.02
2017-11-22T07:32:34.606Z,19.07
2017-11-22T07:33:47.529Z,19.04
2017-11-22T07:34:59.557Z,19.06
2017-11-22T07:36:12.822Z,19.07
2017-11-22T07:37:25.817Z,19.07
2017-11-22T07:38:38.780Z,19.07
2017-11-22T07:39:51.769Z,19.04
2017-11-22T07:41:04.762Z,19.07
2017-11-22T07:42:16.833Z,19.07
2017-11-22T07:43:29.820Z,19.08
2017-11-22T07:44:42.807Z,19
2017-11-22T07:47:39.999Z,19
2017-11-22T07:48:53.032Z,19.08
2017-11-22T07:50:05.555Z,19.08
2017-11-22T07:51:18.083Z,19.22
2017-11-22T07:52:31.046Z,19.19
2017-11-22T07:53:44.016Z,19.16
2017-11-22T07:54:56.995Z,19.18
2017-11-22T07:56:10.005Z,19.16
2017-11-22T07:57:22.971Z,19.21
2017-11-22T07:58:35.490Z,19.31
2017-11-22T07:59:48.499Z,19.31
2017-11-22T08:01:01.086Z,19.33
2017-11-22T08:02:13.605Z,19.37
2017-11-22T08:03:26.596Z,19.4
2017-11-22T08:04:39.145Z,19.4
2017-11-22T08:05:51.182Z,19.33
2017-11-22T08:07:04.196Z,19.25
2017-11-22T08:08:16.291Z,19.28
2017-11-22T08:09:29.255Z,19.23
2017-11-22T08:11:13.450Z,19.23
2017-11-22T08:12:26.650Z,19.22
2017-11-22T08:13:39.651Z,19.28
2017-11-22T08:14:52.637Z,19.23
2017-11-22T08:16:05.137Z,19.21
2017-11-22T08:17:18.106Z,19.26
2017-11-22T08:18:31.097Z,19.31
2017-11-22T08:19:44.097Z,19.26
2017-11-22T08:20:57.091Z,19.28
2017-11-22T08:22:09.618Z,19.4
2017-11-22T08:23:22.605Z,19.48
2017-11-22T08:24:35.627Z,19.43
2017-11-22T08:25:48.165Z,19.46
2017-11-22T08:27:01.138Z,19.36
2017-11-22T08:28:14.140Z,19.47
2017-11-22T08:29:27.145Z,19.48
2017-11-22T08:30:39.876Z,19.47
2017-11-22T08:31:52.418Z,19.47
2017-11-22T08:33:05.415Z,19.47
2017-11-22T08:34:17.925Z,19.46
2017-11-22T08:35:30.940Z,19.44
2017-11-22T08:36:43.955Z,19.51
2017-11-22T08:37:56.612Z,19.44
2017-11-22T08:39:08.677Z,19.47
2017-11-22T08:40:21.221Z,19.59
2017-11-22T08:41:33.762Z,19.48
2017-11-22T08:42:46.764Z,19.58
2017-11-22T08:43:59.757Z,19.55
2017-11-22T08:45:12.301Z,19.58
2017-11-22T08:46:24.850Z,19.61
2017-11-22T08:47:37.844Z,19.58
2017-11-22T08:48:50.850Z,19.56
2017-11-22T08:50:03.437Z,19.58
2017-11-22T08:51:15.937Z,19.62
2017-11-22T08:52:29.129Z,19.61
2017-11-22T08:53:42.149Z,19.66
2017-11-22T08:54:54.270Z,19.71
2017-11-22T08:56:06.789Z,19.65
2017-11-22T08:57:19.795Z,19.68
2017-11-22T08:58:32.765Z,19.68
2017-11-22T08:59:45.791Z,19.68
2017-11-22T09:00:58.378Z,19.73
2017-11-22T09:02:11.389Z,19.74
2017-11-22T09:03:24.393Z,19.87
2017-11-22T09:04:37.368Z,19.87
2017-11-22T09:05:49.865Z,19.88
2017-11-22T09:07:02.826Z,19.81
2017-11-22T09:08:15.843Z,19.83
2017-11-22T09:09:28.846Z,19.84
2017-11-22T09:10:41.400Z,19.83
2017-11-22T09:11:53.924Z,19.86
2017-11-22T09:13:06.962Z,19.88
2017-11-22T09:14:19.478Z,19.87
2017-11-22T09:15:32.466Z,19.81
2017-11-22T09:16:45.430Z,19.87
2017-11-22T09:17:58.424Z,19.87
2017-11-22T09:19:10.971Z,19.81
2017-11-22T09:20:23.957Z,19.83
2017-11-22T09:21:36.941Z,19.87
2017-11-22T09:22:49.929Z,20.02
2017-11-22T09:24:02.865Z,20.01
2017-11-22T09:25:15.429Z,19.96
2017-11-22T09:26:27.949Z,20.03
2017-11-22T09:27:40.925Z,20.14
2017-11-22T09:28:53.478Z,20.13
2017-11-22T09:30:05.509Z,20.11
2017-11-22T09:31:18.049Z,20.21
2017-11-22T09:32:30.775Z,20.24
2017-11-22T09:33:43.767Z,20.21
2017-11-22T09:34:56.779Z,20.21
2017-11-22T09:36:08.363Z,20.17
2017-11-22T09:37:21.364Z,20.24
2017-11-22T09:38:33.869Z,20.23
2017-11-22T09:39:46.919Z,20.18
2017-11-22T09:40:59.918Z,20.2
2017-11-22T09:42:12.974Z,20.2
2017-11-22T09:43:25.997Z,20.23
2017-11-22T09:44:38.948Z,20.21
2017-11-22T09:45:51.932Z,20.29
2017-11-22T09:47:04.458Z,20.32
2017-11-22T09:48:17.005Z,20.29
2017-11-22T09:49:29.576Z,20.31
2017-11-22T09:50:42.558Z,20.26
2017-11-22T09:51:55.110Z,20.31
2017-11-22T09:53:08.128Z,20.26
2017-11-22T09:54:21.133Z,20.31
2017-11-22T09:55:34.126Z,20.31
2017-11-22T09:56:47.112Z,20.42
2017-11-22T09:57:59.149Z,20.41
2017-11-22T09:59:11.702Z,20.39
2017-11-22T10:00:24.223Z,20.55
2017-11-22T10:01:37.446Z,20.59
2017-11-22T10:02:50.018Z,20.58
2017-11-22T10:04:03.015Z,20.64
2017-11-22T10:05:15.568Z,20.74
2017-11-22T10:06:28.555Z,20.79
2017-11-22T10:07:41.537Z,20.79
2017-11-22T10:08:54.561Z,20.8
2017-11-22T10:10:07.552Z,20.84
2017-11-22T10:11:19.666Z,20.87
2017-11-22T10:12:32.855Z,20.89
2017-11-22T10:13:45.863Z,20.77
2017-11-22T10:14:58.797Z,20.73
2017-11-22T10:16:11.319Z,20.64
2017-11-22T10:17:23.853Z,20.58
2017-11-22T10:18:36.851Z,20.64
2017-11-22T10:19:49.392Z,20.62
2017-11-22T10:21:00.994Z,20.67
2017-11-22T10:22:13.066Z,20.66
2017-11-22T10:23:26.008Z,20.61
2017-11-22T10:24:39.193Z,20.61
2017-11-22T10:25:52.212Z,20.69
2017-11-22T10:27:05.200Z,20.62
2017-11-22T10:28:18.189Z,20.58
2017-11-22T10:29:31.216Z,20.58
2017-11-22T10:30:44.209Z,20.5
2017-11-22T10:31:57.198Z,20.61
2017-11-22T10:33:09.722Z,20.62
2017-11-22T10:34:22.255Z,20.69
2017-11-22T10:35:35.266Z,20.62
2017-11-22T10:36:47.801Z,20.74
2017-11-22T10:38:00.779Z,20.82
2017-11-22T10:39:13.747Z,20.85
2017-11-22T10:40:26.239Z,20.91
2017-11-22T10:41:38.320Z,20.98
2017-11-22T10:42:51.341Z,20.92
2017-11-22T10:44:04.335Z,20.94
2017-11-22T10:45:16.830Z,20.89
2017-11-22T10:46:29.816Z,20.91
2017-11-22T10:47:42.819Z,20.95
2017-11-22T10:48:55.779Z,21.03
2017-11-22T10:50:08.785Z,21.14
2017-11-22T10:51:21.316Z,21.16
2017-11-22T10:53:05.548Z,21.17
2017-11-22T10:54:18.517Z,21.22
2017-11-22T10:55:31.477Z,21.38
2017-11-22T10:56:43.530Z,21.58
2017-11-22T10:57:56.497Z,21.92
2017-11-22T10:59:09.464Z,22.05
2017-11-22T11:00:22.045Z,22.21
2017-11-22T11:01:35.012Z,22.36
2017-11-22T11:02:47.515Z,22.28
2017-11-22T11:04:00.512Z,22.07
2017-11-22T11:05:13.049Z,22.07
2017-11-22T11:06:25.596Z,21.98
2017-11-22T11:07:38.567Z,21.86
2017-11-22T11:08:51.151Z,21.91
2017-11-22T11:10:03.727Z,22.09
2017-11-22T11:11:16.722Z,22.2
2017-11-22T11:12:29.738Z,22.31
2017-11-22T11:13:43.061Z,22.42
2017-11-22T11:14:56.029Z,22.62
2017-11-22T11:16:09.090Z,22.75
2017-11-22T11:17:22.081Z,22.67
2017-11-22T11:18:35.097Z,22.54
2017-11-22T11:19:47.636Z,22.33
2017-11-22T11:20:59.698Z,22.33
2017-11-22T11:22:12.723Z,22.4
2017-11-22T11:23:25.695Z,22.43
2017-11-22T11:24:38.669Z,22.57
2017-11-22T11:25:51.856Z,22.52
2017-11-22T11:27:04.423Z,22.61
2017-11-22T11:28:17.403Z,22.68
2017-11-22T11:29:30.403Z,22.79
2017-11-22T11:30:42.921Z,22.9
2017-11-22T11:31:55.923Z,22.92
2017-11-22T11:33:08.897Z,22.95
2017-11-22T11:34:21.956Z,23.12
2017-11-22T11:35:34.939Z,23.22
2017-11-22T11:36:46.966Z,23.27
2017-11-22T11:37:59.512Z,23.4
2017-11-22T11:39:12.550Z,23.46
2017-11-22T11:40:25.535Z,23.36
2017-11-22T11:41:38.127Z,23.32
2017-11-22T11:42:51.182Z,23.19
2017-11-22T11:44:03.732Z,23.1
2017-11-22T11:45:16.724Z,23.07
2017-11-22T11:46:29.707Z,22.94
2017-11-22T11:47:42.504Z,22.91
2017-11-22T11:48:55.723Z,22.97
2017-11-22T11:50:07.793Z,23.01
2017-11-22T11:51:19.900Z,23.01
2017-11-22T11:52:32.438Z,22.95
2017-11-22T11:53:45.424Z,23.07
2017-11-22T11:54:58.464Z,22.94
2017-11-22T11:56:11.459Z,23.05
2017-11-22T11:57:24.455Z,23.19
2017-11-22T11:58:37.455Z,23.32
2017-11-22T11:59:50.468Z,23.47
2017-11-22T12:01:02.992Z,23.55
2017-11-22T12:02:15.047Z,23.5
2017-11-22T12:03:27.613Z,23.48
2017-11-22T12:04:40.192Z,23.55
2017-11-22T12:05:53.215Z,23.72
2017-11-22T12:07:05.764Z,24.09
2017-11-22T12:08:18.777Z,24.4
2017-11-22T12:09:31.743Z,25.03
2017-11-22T12:10:44.319Z,25.91
2017-11-22T12:11:56.840Z,26.1
2017-11-22T12:13:09.587Z,25.42
2017-11-22T12:14:21.677Z,24.76
2017-11-22T12:15:34.257Z,24.24
2017-11-22T12:16:46.775Z,23.54
2017-11-22T12:17:59.356Z,23.2
2017-11-22T12:19:10.956Z,23.07
2017-11-22T12:20:23.031Z,23.19
2017-11-22T12:21:35.099Z,22.97
2017-11-22T12:22:48.124Z,22.9
2017-11-22T12:24:01.125Z,22.68
2017-11-22T12:25:14.124Z,22.6
2017-11-22T12:26:26.661Z,22.42
2017-11-22T12:27:39.657Z,22.52
2017-11-22T12:28:52.252Z,22.47
2017-11-22T12:30:05.252Z,22.47
2017-11-22T12:31:16.842Z,22.57
2017-11-22T12:32:29.820Z,22.62
2017-11-22T12:33:42.316Z,22.67
2017-11-22T12:34:54.856Z,22.76
2017-11-22T12:36:07.844Z,22.8
2017-11-22T12:37:20.860Z,23.09
2017-11-22T12:38:33.796Z,23.38
2017-11-22T12:39:46.815Z,23.61
2017-11-22T12:40:59.802Z,23.73
2017-11-22T12:42:11.850Z,23.55
2017-11-22T12:43:24.822Z,23.55
2017-11-22T12:44:37.853Z,23.43
2017-11-22T12:45:50.414Z,23.54
2017-11-22T12:47:03.644Z,23.73
2017-11-22T12:48:16.675Z,24
2017-11-22T12:49:28.742Z,24.13
2017-11-22T12:50:41.280Z,24.3
2017-11-22T12:51:54.287Z,24.42
2017-11-22T12:53:07.463Z,24.87
2017-11-22T12:54:20.507Z,25.05
2017-11-22T12:55:33.713Z,25.08
2017-11-22T12:56:46.652Z,25.28
2017-11-22T12:57:59.273Z,25.46
2017-11-22T12:59:12.261Z,25.65
2017-11-22T13:00:25.293Z,25.14
2017-11-22T13:01:38.267Z,24.76
2017-11-22T13:02:50.867Z,24.43
2017-11-22T13:04:03.865Z,24.28
2017-11-22T13:05:16.877Z,24.18
2017-11-22T13:06:29.459Z,24.24
2017-11-22T13:07:42.262Z,24.27
2017-11-22T13:08:55.239Z,24.2
2017-11-22T13:10:07.321Z,24.21
2017-11-22T13:11:20.343Z,24.47
2017-11-22T13:12:33.311Z,24.53
2017-11-22T13:13:46.268Z,24.85
2017-11-22T13:14:59.323Z,24.8
2017-11-22T13:16:13.027Z,24.46
2017-11-22T13:17:25.562Z,24.43
2017-11-22T13:18:38.586Z,24.53
2017-11-22T13:19:51.582Z,24.73
2017-11-22T13:21:35.797Z,25.05
2017-11-22T13:22:48.832Z,25.13
2017-11-22T13:24:02.550Z,25.21
2017-11-22T13:25:19.271Z,25.38
2017-11-22T13:26:32.961Z,25.45
2017-11-22T13:27:45.507Z,25.5
2017-11-22T13:28:57.564Z,25.42
2017-11-22T13:30:09.623Z,25.35
2017-11-22T13:31:22.594Z,25.06
2017-11-22T13:32:35.086Z,24.78
2017-11-22T13:33:47.610Z,24.61
2017-11-22T13:34:59.680Z,24.42
2017-11-22T13:36:12.243Z,24.16
2017-11-22T13:37:25.242Z,24.32
2017-11-22T13:38:37.322Z,24.39
2017-11-22T13:39:50.365Z,24.42
2017-11-22T13:41:03.367Z,24.39
2017-11-22T13:42:15.896Z,24.52
2017-11-22T13:43:28.916Z,24.71
2017-11-22T13:44:41.917Z,24.67
2017-11-22T13:45:54.956Z,24.5
2017-11-22T13:47:07.022Z,24.5
2017-11-22T13:48:20.008Z,24.57
2017-11-22T13:49:32.713Z,24.24
2017-11-22T13:50:45.797Z,23.97
2017-11-22T13:51:58.856Z,23.76
2017-11-22T13:53:12.079Z,23.79
2017-11-22T13:54:25.081Z,23.73
2017-11-22T13:55:38.097Z,23.84
2017-11-22T13:56:51.106Z,24.06
2017-11-22T13:58:03.638Z,24.1
2017-11-22T13:59:16.658Z,24.03
2017-11-22T14:00:29.648Z,24.08
2017-11-22T14:01:42.639Z,24.16
2017-11-22T14:02:55.669Z,24.18
2017-11-22T14:04:08.713Z,24.25
2017-11-22T14:05:21.242Z,24.18
2017-11-22T14:06:34.238Z,24.34
2017-11-22T14:07:47.229Z,24.46
2017-11-22T14:09:00.200Z,24.5
2017-11-22T14:10:13.179Z,24.35
2017-11-22T14:11:26.190Z,24.12
2017-11-22T14:12:39.180Z,23.84
2017-11-22T14:13:52.163Z,23.83
2017-11-22T14:15:05.182Z,23.75
2017-11-22T14:16:18.167Z,23.83
2017-11-22T14:17:31.165Z,23.68
2017-11-22T14:18:44.202Z,23.75
2017-11-22T14:19:56.716Z,23.78
2017-11-22T14:21:09.421Z,23.73
2017-11-22T14:22:21.927Z,23.73
2017-11-22T14:23:34.506Z,23.79
2017-11-22T14:24:47.015Z,23.58
2017-11-22T14:25:59.574Z,23.57
2017-11-22T14:27:12.164Z,23.57
2017-11-22T14:28:25.218Z,23.65
2017-11-22T14:29:37.749Z,23.73
2017-11-22T14:30:50.245Z,23.54
2017-11-22T14:32:03.274Z,23.6
2017-11-22T14:33:15.823Z,23.57
2017-11-22T14:34:28.830Z,23.63
2017-11-22T14:35:41.843Z,23.6
2017-11-22T14:36:54.871Z,23.73
2017-11-22T14:38:07.408Z,23.9
2017-11-22T14:39:19.939Z,23.72
2017-11-22T14:40:32.986Z,23.55
2017-11-22T14:41:45.521Z,23.39
2017-11-22T14:42:58.561Z,23.31
2017-11-22T14:44:11.543Z,23.22
2017-11-22T14:45:24.609Z,23.07
2017-11-22T14:46:37.671Z,22.97
2017-11-22T14:47:50.183Z,22.97
2017-11-22T14:49:03.124Z,23.04
2017-11-22T14:50:15.696Z,23.16
2017-11-22T14:51:27.766Z,23.36
2017-11-22T14:52:40.778Z,23.53
2017-11-22T14:53:53.767Z,23.4
2017-11-22T14:55:07.009Z,23.19
2017-11-22T14:56:20.013Z,23.12
2017-11-22T14:57:33.010Z,22.97
2017-11-22T14:58:46.078Z,22.7
2017-11-22T14:59:58.686Z,22.68
2017-11-22T15:01:11.707Z,22.79
2017-11-22T15:02:24.220Z,22.7
2017-11-22T15:03:37.255Z,22.79
2017-11-22T15:04:50.224Z,22.82
2017-11-22T15:06:03.191Z,22.76
2017-11-22T15:07:15.280Z,22.67
2017-11-22T15:08:28.301Z,22.76
2017-11-22T15:09:41.316Z,22.72
2017-11-22T15:10:54.315Z,22.75
2017-11-22T15:12:07.298Z,22.77
2017-11-22T15:13:19.844Z,22.75
2017-11-22T15:14:32.359Z,22.51
2017-11-22T15:15:44.943Z,22.43
2017-11-22T15:16:57.872Z,22.06
2017-11-22T15:18:10.873Z,22.02
2017-11-22T15:19:23.453Z,21.98
2017-11-22T15:20:35.975Z,21.83
2017-11-22T15:21:48.521Z,21.71
2017-11-22T15:23:00.400Z,21.71
2017-11-22T15:24:13.397Z,22.09
2017-11-22T15:25:26.369Z,22.54
2017-11-22T15:26:39.372Z,22.85
2017-11-22T15:27:52.361Z,22.85
2017-11-22T15:29:04.886Z,22.49
2017-11-22T15:30:17.956Z,22.05
2017-11-22T15:31:30.484Z,21.64
2017-11-22T15:32:42.780Z,21.49
2017-11-22T15:33:55.322Z,21.5
2017-11-22T15:35:08.443Z,21.64
2017-11-22T15:36:21.150Z,21.72
2017-11-22T15:37:34.163Z,21.88
2017-11-22T15:38:46.947Z,22.14
2017-11-22T15:39:59.506Z,22.28
2017-11-22T15:41:12.496Z,22.49
2017-11-22T15:42:25.526Z,22.67
2017-11-22T15:43:38.576Z,22.82
2017-11-22T15:44:51.117Z,23.23